Time;durP1;ratioP1;P1;durP2;ratioP2;P2;SDS_P1;SDS_P2;PMS_P1;PMS_P2;Temp;Humidity;BMP_temperature;BMP_pressure;BME280_temperature;BME280_humidity;BME280_pressure;Samples;Min_cycle;Max_cycle;Signal;HPM_P1;HPM_P2
2020/12/20 00:01:53;;;;;;;4.20;1.38;;;;;;;;;;5066621;28;20028;-46
2020/12/20 00:04:19;;;;;;;3.00;1.70;;;;;;;;;;5066091;28;20025;-47
2020/12/20 00:06:46;;;;;;;3.10;1.80;;;;;;;;;;5065829;28;20032;-46
2020/12/20 00:09:16;;;;;;;4.47;2.50;;;;;;;;;;5066396;28;20021;-46
2020/12/20 00:11:43;;;;;;;4.78;2.70;;;;;;;;;;5066072;28;20077;-46
2020/12/20 00:14:27;;;;;;;7.10;3.75;;;;;;;;;;5066535;28;20017;-50
2020/12/20 00:16:58;;;;;;;4.97;3.25;;;;;;;;;;5066310;28;20414;-49
2020/12/20 00:19:24;;;;;;;4.38;3.00;;;;;;;;;;5068473;28;20036;-48
2020/12/20 00:21:57;;;;;;;6.32;3.65;;;;;;;;;;5072513;28;20041;-50
2020/12/20 00:24:24;;;;;;;5.82;3.45;;;;;;;;;;5071400;28;20032;-49
2020/12/20 00:26:50;;;;;;;4.95;3.03;;;;;;;;;;5068270;28;20128;-51
2020/12/20 00:29:16;;;;;;;6.63;3.50;;;;;;;;;;5068488;28;20024;-46
2020/12/20 00:31:42;;;;;;;4.00;2.72;;;;;;;;;;5068178;28;20025;-46
2020/12/20 00:34:09;;;;;;;4.90;3.03;;;;;;;;;;5067848;28;20125;-48
2020/12/20 00:36:35;;;;;;;4.35;3.15;;;;;;;;;;5068775;28;20414;-47
2020/12/20 00:39:01;;;;;;;6.65;3.15;;;;;;;;;;5067925;28;20090;-46
2020/12/20 00:41:28;;;;;;;5.07;3.03;;;;;;;;;;5066857;28;20383;-47
2020/12/20 00:43:54;;;;;;;4.55;3.08;;;;;;;;;;5068052;28;20445;-47
2020/12/20 00:46:20;;;;;;;4.72;3.00;;;;;;;;;;5067861;28;20039;-48
2020/12/20 00:48:46;;;;;;;5.53;3.25;;;;;;;;;;5068296;28;20095;-49
2020/12/20 00:51:12;;;;;;;5.65;3.25;;;;;;;;;;5071097;28;20023;-50
2020/12/20 00:53:38;;;;;;;5.00;3.45;;;;;;;;;;5086845;28;20028;-50
2020/12/20 00:56:05;;;;;;;5.88;3.38;;;;;;;;;;5088008;28;20031;-49
2020/12/20 00:58:33;;;;;;;6.05;3.47;;;;;;;;;;5077809;28;20024;-48
2020/12/20 01:01:00;;;;;;;5.10;3.55;;;;;;;;;;5067572;28;20028;-48
2020/12/20 01:03:26;;;;;;;4.82;3.00;;;;;;;;;;5066804;28;20017;-46
2020/12/20 01:05:52;;;;;;;4.65;3.20;;;;;;;;;;5067048;28;20104;-48
2020/12/20 01:08:18;;;;;;;5.57;3.35;;;;;;;;;;5087896;28;20028;-46
2020/12/20 01:10:44;;;;;;;5.18;3.03;;;;;;;;;;5086161;28;20093;-47
2020/12/20 01:13:12;;;;;;;5.20;3.30;;;;;;;;;;5086068;28;20428;-46
2020/12/20 01:15:38;;;;;;;3.90;2.70;;;;;;;;;;5073906;28;20440;-47
2020/12/20 01:18:04;;;;;;;5.85;3.13;;;;;;;;;;5065838;28;20028;-49
2020/12/20 01:20:31;;;;;;;4.28;2.70;;;;;;;;;;5065167;28;20395;-46
2020/12/20 01:22:57;;;;;;;4.03;2.53;;;;;;;;;;5064281;28;20025;-47
2020/12/20 01:25:23;;;;;;;4.07;2.60;;;;;;;;;;5065405;28;20032;-50
2020/12/20 01:27:49;;;;;;;3.50;2.40;;;;;;;;;;5069992;28;20078;-50
2020/12/20 01:30:15;;;;;;;3.97;2.90;;;;;;;;;;5086295;28;20032;-49
2020/12/20 01:32:40;;;;;;;4.60;2.70;;;;;;;;;;5085538;28;20024;-50
2020/12/20 01:35:07;;;;;;;4.80;3.10;;;;;;;;;;5084639;28;20494;-51
2020/12/20 01:37:33;;;;;;;4.30;3.00;;;;;;;;;;5083583;28;20019;-47
2020/12/20 01:40:00;;;;;;;5.25;3.22;;;;;;;;;;5082823;28;20161;-49
2020/12/20 01:42:26;;;;;;;5.70;3.22;;;;;;;;;;5069675;28;20067;-47
2020/12/20 01:44:52;;;;;;;4.18;3.13;;;;;;;;;;5064925;28;20048;-48
2020/12/20 01:47:19;;;;;;;5.07;3.10;;;;;;;;;;5064673;28;20115;-50
2020/12/20 01:49:45;;;;;;;4.82;3.15;;;;;;;;;;5063957;28;20025;-48
2020/12/20 01:52:13;;;;;;;5.82;3.72;;;;;;;;;;5064685;28;20020;-49
2020/12/20 01:54:39;;;;;;;5.75;3.83;;;;;;;;;;5064670;28;20025;-48
2020/12/20 01:57:05;;;;;;;7.63;3.83;;;;;;;;;;5065025;28;20078;-50
2020/12/20 01:59:31;;;;;;;6.40;4.07;;;;;;;;;;5064511;28;20086;-47
2020/12/20 02:01:59;;;;;;;6.10;3.80;;;;;;;;;;5064173;28;20030;-46
2020/12/20 02:04:26;;;;;;;7.63;4.13;;;;;;;;;;5064144;28;20020;-46
2020/12/20 02:06:52;;;;;;;8.63;4.50;;;;;;;;;;5064561;28;20021;-46
2020/12/20 02:09:18;;;;;;;7.22;4.15;;;;;;;;;;5065163;28;20082;-47
2020/12/20 02:11:44;;;;;;;7.90;4.47;;;;;;;;;;5064820;28;20485;-46
2020/12/20 02:14:10;;;;;;;8.32;4.70;;;;;;;;;;5064891;28;20490;-50
2020/12/20 02:16:36;;;;;;;6.80;4.18;;;;;;;;;;5064474;28;20044;-49
2020/12/20 02:19:02;;;;;;;6.85;4.35;;;;;;;;;;5064090;28;20055;-47
2020/12/20 02:21:28;;;;;;;12.25;4.93;;;;;;;;;;5064453;28;20558;-46
2020/12/20 02:23:54;;;;;;;8.90;4.43;;;;;;;;;;5064670;28;20032;-50
2020/12/20 02:26:21;;;;;;;11.05;4.75;;;;;;;;;;5065263;28;20028;-48
2020/12/20 02:28:51;;;;;;;7.32;4.32;;;;;;;;;;5064834;28;20493;-47
2020/12/20 02:31:17;;;;;;;7.72;5.30;;;;;;;;;;5065282;28;20021;-46
2020/12/20 02:33:43;;;;;;;9.23;5.22;;;;;;;;;;5064516;28;20058;-47
2020/12/20 02:36:10;;;;;;;9.13;4.88;;;;;;;;;;5063202;28;20465;-47
2020/12/20 02:38:36;;;;;;;8.38;5.03;;;;;;;;;;5064659;28;20094;-46
2020/12/20 02:41:02;;;;;;;10.43;5.65;;;;;;;;;;5064368;28;20021;-46
2020/12/20 02:43:28;;;;;;;8.30;5.78;;;;;;;;;;5064238;28;20039;-46
2020/12/20 02:45:55;;;;;;;7.47;4.88;;;;;;;;;;5064643;28;20024;-48
2020/12/20 02:48:21;;;;;;;12.10;5.70;;;;;;;;;;5064019;28;20036;-48
2020/12/20 02:50:47;;;;;;;9.93;6.72;;;;;;;;;;5075501;28;20565;-49
2020/12/20 02:53:13;;;;;;;9.65;6.32;;;;;;;;;;5064027;28;20028;-47
2020/12/20 02:55:39;;;;;;;8.93;5.95;;;;;;;;;;5064166;28;20067;-49
2020/12/20 02:58:05;;;;;;;8.75;5.32;;;;;;;;;;5064476;28;20543;-48
2020/12/20 03:00:36;;;;;;;8.05;4.45;;;;;;;;;;5063630;28;20033;-46
2020/12/20 03:03:03;;;;;;;10.10;4.97;;;;;;;;;;5063718;28;20029;-51
2020/12/20 03:05:29;;;;;;;8.88;5.40;;;;;;;;;;5063954;28;20420;-49
2020/12/20 03:07:55;;;;;;;9.80;5.13;;;;;;;;;;5064235;28;20491;-49
2020/12/20 03:10:21;;;;;;;9.15;4.93;;;;;;;;;;5064085;28;20039;-47
2020/12/20 03:12:47;;;;;;;7.85;4.45;;;;;;;;;;5064536;28;20024;-50
2020/12/20 03:15:13;;;;;;;7.25;4.60;;;;;;;;;;5064685;28;20020;-47
2020/12/20 03:17:40;;;;;;;6.38;4.47;;;;;;;;;;5067187;28;20028;-46
2020/12/20 03:20:06;;;;;;;7.65;4.60;;;;;;;;;;5068396;28;20118;-46
2020/12/20 03:22:32;;;;;;;8.05;4.45;;;;;;;;;;5067841;28;20055;-47
2020/12/20 03:24:59;;;;;;;8.55;4.75;;;;;;;;;;5068156;28;20041;-47
2020/12/20 03:27:25;;;;;;;8.05;5.00;;;;;;;;;;5068030;28;20328;-47
2020/12/20 03:29:51;;;;;;;6.55;4.53;;;;;;;;;;5067742;28;20067;-50
2020/12/20 03:32:17;;;;;;;7.50;4.75;;;;;;;;;;5068342;28;20487;-48
2020/12/20 03:34:43;;;;;;;8.05;4.60;;;;;;;;;;5067611;28;20028;-49
2020/12/20 03:37:09;;;;;;;10.27;5.75;;;;;;;;;;5068215;28;20029;-50
2020/12/20 03:39:35;;;;;;;8.68;5.22;;;;;;;;;;5067331;28;20694;-51
2020/12/20 03:42:01;;;;;;;9.55;5.25;;;;;;;;;;5067621;28;20052;-48
2020/12/20 03:44:27;;;;;;;8.18;5.03;;;;;;;;;;5067691;28;20021;-46
2020/12/20 03:46:53;;;;;;;8.40;4.88;;;;;;;;;;5067104;28;20039;-47
2020/12/20 03:49:19;;;;;;;8.75;4.88;;;;;;;;;;5067481;28;20029;-47
2020/12/20 03:51:45;;;;;;;9.20;4.80;;;;;;;;;;5067427;28;20078;-47
2020/12/20 03:54:11;;;;;;;8.10;4.88;;;;;;;;;;5067138;28;20572;-48
2020/12/20 03:56:37;;;;;;;7.00;4.93;;;;;;;;;;5067108;28;20037;-46
2020/12/20 03:59:03;;;;;;;7.88;5.15;;;;;;;;;;5067071;28;20051;-46
2020/12/20 04:01:30;;;;;;;8.65;5.05;;;;;;;;;;5067971;28;20047;-47
2020/12/20 04:03:56;;;;;;;8.07;4.50;;;;;;;;;;5087392;28;20031;-51
2020/12/20 04:06:22;;;;;;;8.88;5.05;;;;;;;;;;5087461;28;20053;-49
2020/12/20 04:08:48;;;;;;;8.73;5.10;;;;;;;;;;5087639;28;20032;-50
2020/12/20 04:11:14;;;;;;;9.45;5.40;;;;;;;;;;5087491;28;20047;-47
2020/12/20 04:13:40;;;;;;;11.07;5.88;;;;;;;;;;5085445;28;20513;-49
2020/12/20 04:16:10;;;;;;;10.18;5.38;;;;;;;;;;5086475;28;20024;-50
2020/12/20 04:18:36;;;;;;;10.00;5.72;;;;;;;;;;5085910;28;20048;-50
2020/12/20 04:21:02;;;;;;;10.23;5.72;;;;;;;;;;5086365;28;20042;-50
2020/12/20 04:23:28;;;;;;;8.77;5.63;;;;;;;;;;5086237;28;20032;-50
2020/12/20 04:25:54;;;;;;;8.95;5.47;;;;;;;;;;5086972;28;20035;-48
2020/12/20 04:28:20;;;;;;;9.32;5.47;;;;;;;;;;5085683;28;20024;-49
2020/12/20 04:30:47;;;;;;;8.85;5.07;;;;;;;;;;5086934;28;20021;-50
2020/12/20 04:33:13;;;;;;;10.50;5.65;;;;;;;;;;5086700;28;20490;-51
2020/12/20 04:35:39;;;;;;;13.73;6.80;;;;;;;;;;5078345;28;20468;-49
2020/12/20 04:38:05;;;;;;;8.57;5.35;;;;;;;;;;5086845;28;20367;-49
2020/12/20 04:40:31;;;;;;;6.57;4.20;;;;;;;;;;5086413;28;20098;-48
2020/12/20 04:43:08;;;;;;;6.25;3.85;;;;;;;;;;5084184;28;20461;-47
2020/12/20 04:45:34;;;;;;;5.30;3.22;;;;;;;;;;5065848;28;20513;-46
2020/12/20 04:48:01;;;;;;;3.17;2.28;;;;;;;;;;5066516;28;20434;-47
2020/12/20 04:50:27;;;;;;;4.90;2.78;;;;;;;;;;5066178;28;20111;-49
2020/12/20 04:52:57;;;;;;;3.50;2.05;;;;;;;;;;5065875;28;20380;-47
2020/12/20 04:55:24;;;;;;;3.45;2.20;;;;;;;;;;5066171;28;20564;-48
2020/12/20 04:57:51;;;;;;;2.03;1.58;;;;;;;;;;5065623;28;20055;-46
2020/12/20 05:00:17;;;;;;;4.28;1.60;;;;;;;;;;5066567;28;20039;-48
2020/12/20 05:02:43;;;;;;;2.33;1.30;;;;;;;;;;5065887;28;20032;-50
2020/12/20 05:05:09;;;;;;;1.60;1.23;;;;;;;;;;5065821;28;20040;-49
2020/12/20 05:07:35;;;;;;;2.00;1.20;;;;;;;;;;5065725;28;20039;-48
2020/12/20 05:10:03;;;;;;;2.03;1.08;;;;;;;;;;5065674;28;20407;-47
2020/12/20 05:12:30;;;;;;;1.13;0.80;;;;;;;;;;5065520;28;20025;-47
2020/12/20 05:14:56;;;;;;;1.00;0.82;;;;;;;;;;5065874;28;20021;-46
2020/12/20 05:17:22;;;;;;;1.40;1.05;;;;;;;;;;5065677;28;20039;-48
2020/12/20 05:19:48;;;;;;;1.50;0.80;;;;;;;;;;5064054;28;20107;-48
2020/12/20 05:22:16;;;;;;;1.35;0.70;;;;;;;;;;5066689;28;20028;-47
2020/12/20 05:24:42;;;;;;;1.35;0.73;;;;;;;;;;5065520;28;20025;-48
2020/12/20 05:27:20;;;;;;;0.55;0.50;;;;;;;;;;5064694;28;20127;-48
2020/12/20 05:29:51;;;;;;;0.70;0.68;;;;;;;;;;5065857;28;20028;-47
2020/12/20 05:32:24;;;;;;;0.98;0.65;;;;;;;;;;5065999;28;20043;-47
2020/12/20 05:35:07;;;;;;;0.70;0.50;;;;;;;;;;5064583;28;20020;-47
2020/12/20 05:37:34;;;;;;;0.40;0.40;;;;;;;;;;5065170;28;20491;-46
2020/12/20 05:40:02;;;;;;;0.73;0.50;;;;;;;;;;5063671;28;20031;-46
2020/12/20 05:42:28;;;;;;;2.10;0.70;;;;;;;;;;5074737;28;20033;-47
2020/12/20 05:45:05;;;;;;;1.70;0.60;;;;;;;;;;5065282;28;20024;-47
2020/12/20 05:47:31;;;;;;;0.50;0.50;;;;;;;;;;5065026;28;20033;-48
2020/12/20 05:49:57;;;;;;;1.10;0.43;;;;;;;;;;5063857;28;20040;-47
2020/12/20 05:52:23;;;;;;;0.70;0.50;;;;;;;;;;5064717;28;20028;-47
2020/12/20 05:54:49;;;;;;;0.32;0.32;;;;;;;;;;5064869;28;20031;-47
2020/12/20 05:57:16;;;;;;;0.65;0.30;;;;;;;;;;5065730;28;20020;-47
2020/12/20 05:59:44;;;;;;;0.45;0.40;;;;;;;;;;5064477;28;20027;-47
2020/12/20 06:02:10;;;;;;;0.40;0.40;;;;;;;;;;5064694;28;20098;-47
2020/12/20 06:04:36;;;;;;;1.45;0.55;;;;;;;;;;5064685;28;20024;-48
2020/12/20 06:07:03;;;;;;;0.40;0.40;;;;;;;;;;5064810;28;20036;-48
2020/12/20 06:09:29;;;;;;;0.50;0.40;;;;;;;;;;5064742;28;20025;-47
2020/12/20 06:11:57;;;;;;;1.38;0.55;;;;;;;;;;5064222;28;20131;-47
2020/12/20 06:14:25;;;;;;;0.32;0.32;;;;;;;;;;5065586;28;20020;-47
2020/12/20 06:17:14;;;;;;;0.40;0.40;;;;;;;;;;5084489;28;20028;-48
2020/12/20 06:19:48;;;;;;;0.38;0.38;;;;;;;;;;5084518;28;20516;-48
2020/12/20 06:22:14;;;;;;;;;;;;;;;;;;5086243;28;20162;-49
2020/12/20 06:24:46;;;;;;;1.70;0.57;;;;;;;;;;5082883;28;19987;-53
2020/12/20 06:27:14;;;;;;;1.23;0.70;;;;;;;;;;5084849;28;20024;-54
2020/12/20 06:29:43;;;;;;;1.20;0.60;;;;;;;;;;5083128;28;20101;-52
2020/12/20 06:32:10;;;;;;;0.60;0.50;;;;;;;;;;5085015;28;20032;-51
2020/12/20 06:34:39;;;;;;;0.40;0.40;;;;;;;;;;5084558;28;20032;-52
2020/12/20 06:37:06;;;;;;;0.60;0.40;;;;;;;;;;5084763;28;20024;-53
2020/12/20 06:39:41;;;;;;;0.30;0.30;;;;;;;;;;5084615;28;20024;-55
2020/12/20 06:42:08;;;;;;;0.30;0.30;;;;;;;;;;5073345;28;20056;-55
2020/12/20 06:44:34;;;;;;;0.30;0.30;;;;;;;;;;5064216;28;20036;-55
2020/12/20 06:47:00;;;;;;;0.20;0.20;;;;;;;;;;5063931;28;20498;-54
2020/12/20 06:49:40;;;;;;;0.20;0.20;;;;;;;;;;5073866;28;20081;-54
2020/12/20 06:52:18;;;;;;;0.50;0.30;;;;;;;;;;5072359;28;20027;-56
2020/12/20 06:55:02;;;;;;;0.63;0.50;;;;;;;;;;5069855;28;20649;-55
2020/12/20 06:57:28;;;;;;;;;;;;;;;;;;5077711;28;20012;-54
2020/12/20 06:59:54;;;;;;;0.50;0.40;;;;;;;;;;5087886;28;19915;-54
2020/12/20 07:02:39;;;;;;;0.30;0.30;;;;;;;;;;5073588;28;20542;-54
2020/12/20 07:05:05;;;;;;;0.47;0.32;;;;;;;;;;5082797;28;20055;-54
2020/12/20 07:07:31;;;;;;;0.28;0.28;;;;;;;;;;5088910;28;20245;-54
2020/12/20 07:09:57;;;;;;;0.40;0.40;;;;;;;;;;5069492;28;20032;-55
2020/12/20 07:12:32;;;;;;;0.50;0.50;;;;;;;;;;5069755;28;20024;-54
2020/12/20 07:14:59;;;;;;;1.30;0.90;;;;;;;;;;5069739;28;20028;-55
2020/12/20 07:17:25;;;;;;;4.53;1.58;;;;;;;;;;5069740;28;20513;-54
2020/12/20 07:20:10;;;;;;;4.57;2.38;;;;;;;;;;5069006;28;20081;-55
2020/12/20 07:22:36;;;;;;;5.55;3.33;;;;;;;;;;5069380;28;20032;-55
2020/12/20 07:25:02;;;;;;;4.40;2.80;;;;;;;;;;5070460;28;20040;-55
2020/12/20 07:27:29;;;;;;;4.60;2.45;;;;;;;;;;5069192;28;20553;-56
2020/12/20 07:29:55;;;;;;;3.85;2.38;;;;;;;;;;5068951;28;20031;-55
2020/12/20 07:32:21;;;;;;;2.42;1.83;;;;;;;;;;5069416;28;20051;-55
2020/12/20 07:34:48;;;;;;;3.35;2.42;;;;;;;;;;5069489;28;20021;-55
2020/12/20 07:37:14;;;;;;;5.47;3.17;;;;;;;;;;5069261;28;20073;-55
2020/12/20 07:39:40;;;;;;;4.53;3.08;;;;;;;;;;5069048;28;20033;-54
2020/12/20 07:42:06;;;;;;;7.53;4.05;;;;;;;;;;5070498;28;20037;-55
2020/12/20 07:44:32;;;;;;;6.30;4.28;;;;;;;;;;5068661;28;20020;-54
2020/12/20 07:46:58;;;;;;;5.85;3.88;;;;;;;;;;5069233;28;20032;-55
2020/12/20 07:49:24;;;;;;;8.27;3.90;;;;;;;;;;5070827;28;20487;-53
2020/12/20 07:51:50;;;;;;;5.63;3.47;;;;;;;;;;5073235;28;20746;-54
2020/12/20 07:54:16;;;;;;;8.60;4.95;;;;;;;;;;5070273;28;20048;-54
2020/12/20 07:56:46;;;;;;;24.60;11.48;;;;;;;;;;5069856;28;20024;-54
2020/12/20 07:59:13;;;;;;;27.88;13.73;;;;;;;;;;5074157;28;20032;-54
2020/12/20 08:01:40;;;;;;;28.00;13.85;;;;;;;;;;5066536;28;20124;-53
2020/12/20 08:04:10;;;;;;;20.23;10.75;;;;;;;;;;5076826;28;20032;-54
2020/12/20 08:06:38;;;;;;;16.98;9.07;;;;;;;;;;5086256;28;20583;-53
2020/12/20 08:09:23;;;;;;;12.20;6.78;;;;;;;;;;5080163;28;20090;-53
2020/12/20 08:11:49;;;;;;;11.43;6.28;;;;;;;;;;5066711;28;20123;-54
2020/12/20 08:14:16;;;;;;;10.40;6.35;;;;;;;;;;5084026;28;20543;-53
2020/12/20 08:16:46;;;;;;;8.70;5.03;;;;;;;;;;5077408;28;20115;-53
2020/12/20 08:19:22;;;;;;;7.43;4.60;;;;;;;;;;5067239;28;20036;-53
2020/12/20 08:22:01;;;;;;;6.68;4.22;;;;;;;;;;5067738;28;20613;-52
2020/12/20 08:24:31;;;;;;;8.00;4.50;;;;;;;;;;5067617;28;20047;-54
2020/12/20 08:26:59;;;;;;;6.28;4.18;;;;;;;;;;5079268;28;20039;-53
2020/12/20 08:29:25;;;;;;;7.45;4.43;;;;;;;;;;5085306;28;20031;-50
2020/12/20 08:31:51;;;;;;;6.70;4.15;;;;;;;;;;5081433;28;20023;-50
2020/12/20 08:34:18;;;;;;;6.82;4.60;;;;;;;;;;5087061;28;20035;-53
2020/12/20 08:36:45;;;;;;;6.85;4.22;;;;;;;;;;5087587;28;20028;-53
2020/12/20 08:39:12;;;;;;;6.25;4.03;;;;;;;;;;5088821;28;20133;-52
2020/12/20 08:41:39;;;;;;;7.15;4.78;;;;;;;;;;5088449;28;20110;-52
2020/12/20 08:44:05;;;;;;;7.88;4.53;;;;;;;;;;5071801;28;20100;-53
2020/12/20 08:46:32;;;;;;;6.80;4.78;;;;;;;;;;5069635;28;20024;-50
2020/12/20 08:49:20;;;;;;;7.68;4.82;;;;;;;;;;5068530;28;20024;-52
2020/12/20 08:51:48;;;;;;;7.32;4.60;;;;;;;;;;5083184;28;20096;-54
2020/12/20 08:54:23;;;;;;;8.38;4.68;;;;;;;;;;5076928;28;20020;-52
2020/12/20 08:56:53;;;;;;;6.68;4.35;;;;;;;;;;5088336;28;20020;-53
2020/12/20 08:59:28;;;;;;;8.10;4.50;;;;;;;;;;5077323;28;20047;-51
2020/12/20 09:01:54;;;;;;;8.57;5.88;;;;;;;;;;5074913;28;20045;-52
2020/12/20 09:04:20;;;;;;;7.78;5.43;;;;;;;;;;5072080;28;20039;-53
2020/12/20 09:06:59;;;;;;;6.85;4.47;;;;;;;;;;5068148;28;20028;-53
2020/12/20 09:09:26;;;;;;;7.53;4.32;;;;;;;;;;5081242;28;20398;-49
2020/12/20 09:11:52;;;;;;;4.97;3.47;;;;;;;;;;5078872;28;20106;-53
2020/12/20 09:14:18;;;;;;;7.40;4.93;;;;;;;;;;5067666;28;20020;-50
2020/12/20 09:16:45;;;;;;;10.43;6.40;;;;;;;;;;5068386;28;20483;-52
2020/12/20 09:19:13;;;;;;;8.50;5.43;;;;;;;;;;5068002;28;20074;-54
2020/12/20 09:21:39;;;;;;;7.20;4.65;;;;;;;;;;5075883;28;20044;-52
2020/12/20 09:24:05;;;;;;;8.15;5.32;;;;;;;;;;5071820;28;20103;-52
2020/12/20 09:26:31;;;;;;;11.00;6.35;;;;;;;;;;5072706;28;20517;-53
2020/12/20 09:28:57;;;;;;;8.55;5.53;;;;;;;;;;5085503;28;20522;-52
2020/12/20 09:31:23;;;;;;;7.15;4.40;;;;;;;;;;5086753;28;20398;-49
2020/12/20 09:33:52;;;;;;;6.28;4.15;;;;;;;;;;5086486;28;20016;-53
2020/12/20 09:36:22;;;;;;;7.03;3.90;;;;;;;;;;5076198;28;20020;-50
2020/12/20 09:38:49;;;;;;;7.03;4.05;;;;;;;;;;5073811;28;20039;-53
2020/12/20 09:41:16;;;;;;;6.55;4.15;;;;;;;;;;5079351;28;20033;-51
2020/12/20 09:43:44;;;;;;;8.15;4.38;;;;;;;;;;5081530;28;20506;-53
2020/12/20 09:46:18;;;;;;;8.95;4.93;;;;;;;;;;5070133;28;20033;-53
2020/12/20 09:48:44;;;;;;;;;;;;;;;;;;5072287;28;20031;-53
2020/12/20 09:51:10;;;;;;;8.60;5.72;;;;;;;;;;5066522;28;19908;-53
2020/12/20 09:53:36;;;;;;;9.07;5.50;;;;;;;;;;5078297;28;20529;-52
2020/12/20 09:56:03;;;;;;;8.90;5.10;;;;;;;;;;5077438;28;20028;-52
2020/12/20 09:58:30;;;;;;;7.70;4.75;;;;;;;;;;5066335;28;20032;-53
2020/12/20 10:00:56;;;;;;;7.35;4.63;;;;;;;;;;5065821;28;20027;-53
2020/12/20 10:03:24;;;;;;;8.95;5.35;;;;;;;;;;5064363;28;20033;-52
2020/12/20 10:05:50;;;;;;;8.98;6.10;;;;;;;;;;5065290;28;20048;-52
2020/12/20 10:08:16;;;;;;;9.27;5.82;;;;;;;;;;5066393;28;20185;-51
2020/12/20 10:10:42;;;;;;;8.57;5.88;;;;;;;;;;5064962;28;20037;-53
2020/12/20 10:13:08;;;;;;;9.60;5.88;;;;;;;;;;5065684;28;20028;-54
2020/12/20 10:15:34;;;;;;;7.13;4.82;;;;;;;;;;5065690;28;20095;-54
2020/12/20 10:18:01;;;;;;;10.25;5.80;;;;;;;;;;5080914;28;20034;-53
2020/12/20 10:20:28;;;;;;;10.57;6.05;;;;;;;;;;5072603;28;20595;-53
2020/12/20 10:22:54;;;;;;;11.27;6.85;;;;;;;;;;5074751;28;20584;-52
2020/12/20 10:25:20;;;;;;;9.48;6.15;;;;;;;;;;5065847;28;20024;-53
2020/12/20 10:27:46;;;;;;;9.13;5.35;;;;;;;;;;5077285;28;20028;-53
2020/12/20 10:30:13;;;;;;;8.15;5.38;;;;;;;;;;5068858;28;20107;-53
2020/12/20 10:32:40;;;;;;;7.45;4.90;;;;;;;;;;5074848;28;20031;-53
2020/12/20 10:35:06;;;;;;;8.70;5.47;;;;;;;;;;5078041;28;20521;-53
2020/12/20 10:37:32;;;;;;;11.68;6.63;;;;;;;;;;5080868;28;20391;-50
2020/12/20 10:39:58;;;;;;;11.13;6.38;;;;;;;;;;5070716;28;20020;-53
2020/12/20 10:42:24;;;;;;;12.15;6.72;;;;;;;;;;5085220;28;20042;-53
2020/12/20 10:44:51;;;;;;;15.73;8.77;;;;;;;;;;5084577;28;20026;-53
2020/12/20 10:47:17;;;;;;;15.07;7.90;;;;;;;;;;5085336;28;20036;-53
2020/12/20 10:49:43;;;;;;;13.32;7.10;;;;;;;;;;5076700;28;20339;-53
2020/12/20 10:52:09;;;;;;;9.48;5.45;;;;;;;;;;5071669;28;20538;-52
2020/12/20 10:54:35;;;;;;;9.25;5.70;;;;;;;;;;5067166;28;20115;-53
2020/12/20 10:57:02;;;;;;;8.52;5.15;;;;;;;;;;5086471;28;20024;-53
2020/12/20 10:59:30;;;;;;;6.95;4.43;;;;;;;;;;5069950;28;20032;-53
2020/12/20 11:01:56;;;;;;;7.45;4.72;;;;;;;;;;5067214;28;20617;-51
2020/12/20 11:04:23;;;;;;;8.80;4.65;;;;;;;;;;5075937;28;20071;-52
2020/12/20 11:06:49;;;;;;;7.43;4.65;;;;;;;;;;5067890;28;20036;-53
2020/12/20 11:09:15;;;;;;;7.30;4.85;;;;;;;;;;5086125;28;20024;-53
2020/12/20 11:11:42;;;;;;;7.90;4.75;;;;;;;;;;5082265;28;20032;-53
2020/12/20 11:14:09;;;;;;;8.65;5.05;;;;;;;;;;5066346;28;20021;-53
2020/12/20 11:16:35;;;;;;;7.80;4.43;;;;;;;;;;5066109;28;20032;-53
2020/12/20 11:19:01;;;;;;;6.43;4.45;;;;;;;;;;5085601;28;20039;-54
2020/12/20 11:21:27;;;;;;;8.40;4.47;;;;;;;;;;5080638;28;20021;-53
2020/12/20 11:23:53;;;;;;;8.20;4.72;;;;;;;;;;5066203;28;20028;-52
2020/12/20 11:26:21;;;;;;;7.72;4.35;;;;;;;;;;5072424;28;20074;-53
2020/12/20 11:28:48;;;;;;;7.65;4.55;;;;;;;;;;5086870;28;20024;-52
2020/12/20 11:31:16;;;;;;;10.48;5.70;;;;;;;;;;5072547;28;20031;-50
2020/12/20 11:33:42;;;;;;;9.13;4.93;;;;;;;;;;5086121;28;20035;-53
2020/12/20 11:36:08;;;;;;;8.57;4.93;;;;;;;;;;5086667;28;20024;-53
2020/12/20 11:38:35;;;;;;;6.88;4.50;;;;;;;;;;5089744;28;20020;-53
2020/12/20 11:41:02;;;;;;;7.03;4.80;;;;;;;;;;5080751;28;20028;-52
2020/12/20 11:43:29;;;;;;;7.40;5.13;;;;;;;;;;5076318;28;20037;-53
2020/12/20 11:45:55;;;;;;;6.53;4.68;;;;;;;;;;5069570;28;20056;-53
2020/12/20 11:48:21;;;;;;;7.63;5.05;;;;;;;;;;5069726;28;20119;-54
2020/12/20 11:50:47;;;;;;;6.90;3.85;;;;;;;;;;5078104;28;20020;-53
2020/12/20 11:53:13;;;;;;;7.10;4.07;;;;;;;;;;5089525;28;20093;-53
2020/12/20 11:55:40;;;;;;;7.25;4.00;;;;;;;;;;5087817;28;20464;-53
2020/12/20 11:58:11;;;;;;;5.85;3.85;;;;;;;;;;5083758;28;20055;-54
2020/12/20 12:00:38;;;;;;;6.55;4.13;;;;;;;;;;5089533;28;20024;-55
2020/12/20 12:03:04;;;;;;;6.07;3.92;;;;;;;;;;5089543;28;20024;-53
2020/12/20 12:05:30;;;;;;;6.97;4.15;;;;;;;;;;5085342;28;20020;-53
2020/12/20 12:07:56;;;;;;;7.03;4.63;;;;;;;;;;5073496;28;20534;-53
2020/12/20 12:10:22;;;;;;;6.57;4.55;;;;;;;;;;5071302;28;20113;-52
2020/12/20 12:12:48;;;;;;;7.40;4.68;;;;;;;;;;5085820;28;20073;-55
2020/12/20 12:15:14;;;;;;;7.63;4.55;;;;;;;;;;5077380;28;20055;-54
2020/12/20 12:17:40;;;;;;;7.93;5.18;;;;;;;;;;5074587;28;20025;-54
2020/12/20 12:20:06;;;;;;;6.72;4.68;;;;;;;;;;5086949;28;20024;-54
2020/12/20 12:22:33;;;;;;;6.22;4.32;;;;;;;;;;5077794;28;20032;-54
2020/12/20 12:24:59;;;;;;;7.65;4.70;;;;;;;;;;5089967;28;20072;-54
2020/12/20 12:27:25;;;;;;;6.75;4.47;;;;;;;;;;5109449;28;20027;-53
2020/12/20 12:29:51;;;;;;;7.00;4.00;;;;;;;;;;5109132;28;20666;-51
2020/12/20 12:32:17;;;;;;;5.95;4.00;;;;;;;;;;5091656;28;20116;-53
2020/12/20 12:34:43;;;;;;;6.15;4.25;;;;;;;;;;5071284;28;20521;-53
2020/12/20 12:37:09;;;;;;;5.95;3.53;;;;;;;;;;5069060;28;20024;-52
2020/12/20 12:39:35;;;;;;;5.65;3.92;;;;;;;;;;5086632;28;20039;-50
2020/12/20 12:42:05;;;;;;;5.78;3.50;;;;;;;;;;5081555;28;20059;-54
2020/12/20 12:44:32;;;;;;;5.40;3.80;;;;;;;;;;5068994;28;20032;-51
2020/12/20 12:46:58;;;;;;;4.38;3.00;;;;;;;;;;5078108;28;20040;-53
2020/12/20 12:49:25;;;;;;;5.40;3.65;;;;;;;;;;5072519;28;20055;-55
2020/12/20 12:51:52;;;;;;;4.10;2.85;;;;;;;;;;5076337;28;20024;-54
2020/12/20 12:54:19;;;;;;;5.60;3.60;;;;;;;;;;5071104;28;20067;-52
2020/12/20 12:56:46;;;;;;;5.10;3.33;;;;;;;;;;5066119;28;20017;-54
2020/12/20 12:59:12;;;;;;;4.75;3.35;;;;;;;;;;5072795;28;20059;-55
2020/12/20 13:01:38;;;;;;;6.60;4.57;;;;;;;;;;5085403;28;20481;-53
2020/12/20 13:04:06;;;;;;;7.60;5.15;;;;;;;;;;5072587;28;20070;-53
2020/12/20 13:06:32;;;;;;;5.60;4.30;;;;;;;;;;5070621;28;20267;-54
2020/12/20 13:08:58;;;;;;;5.45;3.70;;;;;;;;;;5086307;28;20040;-53
2020/12/20 13:11:25;;;;;;;6.10;3.95;;;;;;;;;;5079290;28;20094;-53
2020/12/20 13:13:51;;;;;;;5.38;3.67;;;;;;;;;;5067246;28;20036;-54
2020/12/20 13:16:17;;;;;;;4.65;3.40;;;;;;;;;;5086519;28;20024;-55
2020/12/20 13:18:43;;;;;;;4.38;3.33;;;;;;;;;;5076892;28;20081;-54
2020/12/20 13:21:16;;;;;;;4.30;3.03;;;;;;;;;;5072431;28;20021;-53
2020/12/20 13:23:42;;;;;;;4.05;2.92;;;;;;;;;;5086237;28;20030;-54
2020/12/20 13:26:08;;;;;;;5.85;3.38;;;;;;;;;;5069565;28;20020;-54
2020/12/20 13:28:34;;;;;;;4.63;3.33;;;;;;;;;;5068106;28;20395;-54
2020/12/20 13:31:00;;;;;;;4.32;3.22;;;;;;;;;;5083827;28;20028;-54
2020/12/20 13:33:27;;;;;;;5.15;3.83;;;;;;;;;;5066335;28;20029;-54
2020/12/20 13:35:54;;;;;;;5.78;4.07;;;;;;;;;;5065740;28;20399;-55
2020/12/20 13:38:20;;;;;;;6.53;4.50;;;;;;;;;;5066051;28;20395;-54
2020/12/20 13:40:49;;;;;;;5.40;4.18;;;;;;;;;;5065530;28;20036;-54
2020/12/20 13:43:15;;;;;;;5.90;3.90;;;;;;;;;;5074861;28;20437;-53
2020/12/20 13:45:42;;;;;;;5.20;3.53;;;;;;;;;;5074944;28;20043;-53
2020/12/20 13:48:08;;;;;;;4.35;3.63;;;;;;;;;;5094390;28;20032;-53
2020/12/20 13:50:34;;;;;;;4.70;3.67;;;;;;;;;;5106015;28;20042;-51
2020/12/20 13:53:00;;;;;;;3.85;2.85;;;;;;;;;;5093552;28;20402;-53
2020/12/20 13:55:26;;;;;;;4.28;2.97;;;;;;;;;;5065980;28;20024;-53
2020/12/20 13:57:52;;;;;;;4.50;3.15;;;;;;;;;;5081225;28;20024;-54
2020/12/20 14:00:18;;;;;;;4.13;3.20;;;;;;;;;;5084445;28;20032;-54
2020/12/20 14:02:44;;;;;;;5.80;4.10;;;;;;;;;;5085786;28;20099;-53
2020/12/20 14:05:10;;;;;;;5.18;3.60;;;;;;;;;;5084432;28;20561;-53
2020/12/20 14:07:36;;;;;;;5.82;3.90;;;;;;;;;;5072134;28;20036;-53
2020/12/20 14:10:03;;;;;;;5.95;3.92;;;;;;;;;;5085132;28;20600;-54
2020/12/20 14:12:29;;;;;;;6.00;4.07;;;;;;;;;;5073978;28;20475;-54
2020/12/20 14:14:57;;;;;;;4.88;3.70;;;;;;;;;;5064737;28;20061;-54
2020/12/20 14:17:23;;;;;;;6.00;3.95;;;;;;;;;;5065053;28;20067;-55
2020/12/20 14:19:49;;;;;;;6.97;4.50;;;;;;;;;;5064532;28;20044;-55
2020/12/20 14:22:15;;;;;;;6.32;4.53;;;;;;;;;;5065161;28;20021;-54
2020/12/20 14:24:41;;;;;;;8.98;5.07;;;;;;;;;;5069999;28;20040;-54
2020/12/20 14:27:07;;;;;;;7.78;4.95;;;;;;;;;;5064689;28;20348;-54
2020/12/20 14:29:33;;;;;;;7.82;5.30;;;;;;;;;;5064135;28;20504;-55
2020/12/20 14:32:00;;;;;;;7.30;4.90;;;;;;;;;;5068976;28;20027;-54
2020/12/20 14:34:26;;;;;;;6.20;4.13;;;;;;;;;;5072961;28;20078;-54
2020/12/20 14:36:52;;;;;;;6.22;4.13;;;;;;;;;;5064549;28;20609;-53
2020/12/20 14:39:18;;;;;;;5.90;3.50;;;;;;;;;;5064622;28;20043;-54
2020/12/20 14:41:44;;;;;;;5.53;3.45;;;;;;;;;;5072585;28;20028;-54
2020/12/20 14:44:11;;;;;;;6.07;4.32;;;;;;;;;;5076999;28;20320;-54